createdAt,value
2022-10-01T13:56:13.352Z,81.24
2022-10-01T13:57:15.554Z,82.39
2022-10-01T14:54:43.765Z,81.30
2022-10-01T14:55:45.893Z,81.74
2022-10-01T14:56:44.742Z,81.74
2022-10-01T14:57:44.929Z,82.09
2022-10-01T15:00:55.291Z,82.59
2022-10-01T15:01:56.116Z,82.39
2022-10-01T15:02:56.123Z,82.09
2022-10-01T15:03:56.162Z,82.29
2022-10-01T15:04:56.113Z,82.18
2022-10-01T15:05:56.416Z,82.18
2022-10-01T15:06:56.024Z,82.39
2022-10-01T15:07:56.027Z,82.39
2022-10-01T15:08:56.069Z,82.39
2022-10-01T15:10:04.921Z,82.39
2022-10-01T15:10:55.979Z,82.29
2022-10-01T15:11:58.072Z,81.99
2022-10-01T15:12:55.969Z,81.59
2022-10-01T15:13:55.985Z,82.18
2022-10-01T15:14:56.795Z,82.69
2022-10-01T15:18:54.703Z,84.57
2022-10-01T15:19:54.780Z,85.08
2022-10-01T15:20:55.720Z,85.38
2022-10-01T15:21:55.787Z,85.88
2022-10-01T15:24:56.470Z,85.08
2022-10-01T15:25:57.337Z,86.18
2022-10-01T15:26:57.396Z,86.18
2022-10-01T15:37:06.766Z,82.95
2022-10-01T15:38:06.545Z,82.45
2022-10-01T15:39:07.305Z,82.31
2022-10-01T15:44:24.069Z,82.03
2022-10-01T15:44:48.685Z,81.33
2022-10-01T15:45:48.715Z,81.53
2022-10-01T15:46:49.599Z,82.17
2022-10-01T15:47:49.870Z,82.47
2022-10-01T15:48:49.426Z,82.53
2022-10-01T15:49:48.693Z,82.67
2022-10-01T15:50:48.563Z,83.27
2022-10-01T15:51:48.595Z,83.47
2022-10-01T15:52:48.636Z,83.57
2022-10-01T15:56:07.066Z,83.89
2022-10-01T15:57:08.006Z,81.59
2022-10-01T15:58:09.235Z,80.19
2022-10-01T15:59:08.793Z,79.89
2022-10-01T16:00:10.761Z,79.79
2022-10-01T16:01:08.183Z,80.19
2022-10-01T16:02:07.978Z,81.05
2022-10-01T16:03:07.972Z,80.21
2022-10-01T16:04:09.855Z,79.72
2022-10-01T16:05:07.973Z,79.52
2022-10-01T16:06:10.383Z,79.97
2022-10-01T16:07:07.927Z,79.88
2022-10-01T16:08:07.854Z,78.74
2022-10-01T16:09:07.885Z,78.38
2022-10-01T16:10:07.923Z,78.08
2022-10-01T16:11:08.786Z,76.88
2022-10-01T16:12:08.766Z,76.48
2022-10-01T16:13:46.359Z,76.58
2022-10-01T16:14:07.817Z,76.78
2022-10-01T16:15:08.207Z,77.08
2022-10-01T16:16:07.945Z,77.04
2022-10-01T16:17:07.790Z,77.21
2022-10-01T16:18:07.824Z,76.31
2022-10-01T16:19:07.809Z,76.54
2022-10-01T16:20:10.054Z,77.51
2022-10-01T16:21:08.698Z,78.45
2022-10-01T16:22:10.285Z,79.29
2022-10-01T16:37:18.508Z,78.74
2022-10-01T16:38:10.234Z,77.61
2022-10-01T16:39:32.624Z,77.51
2022-10-01T16:40:11.683Z,77.11
2022-10-01T16:41:08.307Z,77.14
2022-10-01T16:42:23.695Z,77.64
2022-10-01T16:43:08.293Z,77.88
2022-10-01T16:44:32.605Z,78.61
2022-10-01T16:45:08.271Z,79.41
2022-10-01T16:46:08.988Z,79.96
2022-10-01T16:56:04.277Z,79.78
2022-10-01T16:57:07.627Z,79.48
2022-10-01T16:58:05.016Z,79.28
2022-10-01T16:59:05.410Z,78.28
2022-10-01T17:00:04.477Z,78.61
2022-10-01T17:01:04.491Z,79.61
2022-10-01T17:02:04.483Z,79.61
2022-10-01T17:03:05.739Z,79.78
2022-10-01T17:04:09.830Z,79.88
2022-10-01T17:05:05.001Z,79.38
2022-10-01T17:06:05.266Z,79.08
2022-10-01T17:07:05.961Z,79.08
2022-10-01T17:08:04.359Z,79.04
2022-10-01T17:09:04.313Z,77.94
2022-10-01T17:10:05.050Z,78.14
2022-10-01T17:11:04.997Z,78.68
2022-10-01T17:12:05.297Z,79.08
2022-10-01T17:13:04.297Z,79.04
2022-10-01T17:14:04.975Z,78.94
2022-10-01T17:15:04.220Z,78.84
2022-10-01T17:16:04.255Z,78.90
2022-10-01T17:17:04.211Z,78.80
2022-10-01T17:18:05.012Z,79.64
2022-10-01T17:19:04.981Z,81.12
2022-10-01T17:20:04.241Z,81.81
2022-10-01T17:21:04.229Z,82.55
2022-10-01T17:22:04.174Z,82.91
2022-10-01T17:23:04.135Z,83.31
2022-10-01T17:24:04.204Z,83.01
2022-10-01T17:25:04.666Z,82.77
2022-10-01T17:26:04.985Z,82.07
2022-10-01T17:27:04.120Z,82.17
2022-10-01T17:28:04.180Z,81.67
2022-10-01T17:29:06.086Z,82.51
2022-10-01T17:30:13.741Z,82.81
2022-10-01T17:31:06.800Z,82.71
2022-10-01T17:32:04.133Z,82.37
2022-10-01T17:33:04.038Z,81.93
2022-10-01T17:34:04.053Z,81.13
2022-10-01T17:35:04.015Z,81.18
2022-10-01T17:36:04.010Z,81.67
2022-10-01T17:37:04.059Z,81.48
2022-10-01T17:38:03.985Z,81.27
2022-10-01T17:39:04.943Z,81.81
2022-10-01T17:40:03.996Z,82.21
2022-10-01T17:41:03.978Z,82.51
2022-10-01T17:42:04.699Z,82.57
2022-10-01T17:43:03.978Z,81.48
2022-10-01T17:44:05.436Z,81.18
2022-10-01T17:45:04.493Z,80.38
2022-10-01T17:46:05.841Z,80.47
2022-10-01T17:47:03.922Z,81.18
2022-10-01T17:48:03.860Z,81.48
2022-10-01T17:49:04.867Z,81.57
2022-10-01T17:50:03.872Z,81.87
2022-10-01T17:51:03.879Z,81.67
2022-10-01T17:52:03.878Z,81.57
2022-10-01T17:53:03.873Z,81.37
2022-10-01T17:54:03.790Z,81.77
2022-10-01T17:55:03.833Z,81.67
2022-10-01T17:56:03.807Z,81.27
2022-10-01T17:57:03.812Z,81.07
2022-10-01T17:58:03.755Z,81.34
2022-10-01T17:59:03.742Z,81.13
2022-10-01T18:00:04.741Z,80.64
2022-10-01T18:01:04.716Z,80.14
2022-10-01T18:02:18.591Z,79.84
2022-10-01T18:03:03.840Z,79.74
2022-10-01T18:04:03.765Z,80.10
2022-10-01T18:05:03.799Z,79.80
2022-10-01T18:06:04.682Z,79.74
2022-10-01T18:07:05.476Z,79.80
2022-10-01T18:08:03.683Z,80.24
2022-10-01T18:09:05.193Z,80.10
2022-10-01T18:10:04.572Z,80.00
2022-10-01T18:11:07.249Z,79.50
2022-10-01T18:12:08.623Z,79.20
2022-10-01T18:13:03.782Z,79.60
2022-10-01T18:14:04.591Z,79.16
2022-10-01T18:15:03.756Z,78.37
2022-10-01T18:16:03.794Z,78.07
2022-10-01T18:17:03.544Z,77.97
2022-10-01T18:20:04.305Z,77.77
2022-10-01T18:21:03.626Z,78.20
2022-10-01T18:22:11.832Z,78.41
2022-10-01T18:23:04.024Z,78.50
2022-10-01T18:24:05.104Z,78.17
2022-10-01T18:25:03.532Z,78.47
2022-10-01T18:26:03.527Z,78.47
2022-10-01T18:27:03.557Z,78.37
2022-10-01T18:28:03.550Z,78.37
2022-10-01T18:29:03.499Z,77.97
2022-10-01T18:30:03.529Z,78.17
2022-10-01T18:31:03.575Z,78.37
2022-10-01T18:32:04.318Z,78.67
2022-10-01T18:33:03.926Z,78.07
2022-10-01T18:34:03.484Z,78.37
2022-10-01T18:35:03.485Z,78.70
2022-10-01T18:36:03.494Z,78.90
2022-10-01T18:37:04.040Z,79.20
2022-10-01T18:38:03.503Z,79.30
2022-10-01T18:39:03.517Z,79.30
2022-10-01T18:40:03.947Z,79.40
2022-10-01T18:41:03.965Z,79.30
2022-10-01T18:42:03.525Z,79.40
2022-10-01T18:43:03.986Z,79.20
2022-10-01T18:44:03.277Z,79.00
2022-10-01T18:45:03.328Z,78.90
2022-10-01T18:46:04.050Z,79.64
2022-10-01T18:47:03.323Z,80.24
2022-10-01T18:48:03.342Z,80.44
2022-10-01T18:49:03.474Z,80.77
2022-10-01T18:50:03.150Z,80.88
2022-10-01T18:51:03.141Z,81.07
2022-10-01T18:52:04.064Z,80.98
2022-10-01T18:53:03.180Z,81.07
2022-10-01T18:54:03.108Z,81.07
2022-10-01T18:55:05.030Z,81.07
2022-10-01T18:56:04.192Z,80.98
2022-10-01T18:57:03.131Z,80.68
2022-10-01T18:58:03.093Z,80.77
2022-10-01T18:59:03.124Z,81.07
2022-10-01T19:00:04.062Z,81.21
2022-10-01T19:01:03.391Z,81.21
2022-10-01T19:02:04.650Z,81.51
2022-10-01T19:03:03.952Z,81.61
2022-10-01T19:04:03.097Z,81.51
2022-10-01T19:05:03.046Z,81.71
2022-10-01T19:06:03.064Z,81.81
2022-10-01T19:07:03.023Z,82.21
2022-10-01T19:08:03.804Z,82.31
2022-10-01T19:09:07.212Z,82.31
2022-10-01T19:10:02.980Z,82.21
2022-10-01T19:11:02.984Z,82.21
2022-10-01T19:12:02.939Z,82.11
2022-10-01T19:13:03.002Z,82.01
2022-10-01T19:14:02.954Z,82.01
2022-10-01T19:15:02.931Z,81.92
2022-10-01T19:16:03.745Z,82.01
2022-10-01T19:17:02.854Z,82.51
2022-10-01T19:18:02.896Z,83.11
2022-10-01T19:19:04.829Z,83.95
2022-10-01T19:20:02.876Z,84.75
2022-10-01T19:21:02.834Z,85.35
2022-10-01T19:22:03.764Z,86.19
2022-10-01T19:23:02.836Z,87.03
2022-10-01T19:24:02.777Z,87.53
2022-10-01T19:25:02.802Z,87.93
2022-10-01T19:26:02.788Z,88.48
2022-10-01T19:27:03.543Z,88.78
2022-10-01T19:28:03.780Z,89.37
2022-10-01T19:29:03.595Z,89.52
2022-10-01T19:30:02.772Z,89.82
2022-10-01T19:31:03.650Z,90.12
2022-10-01T19:32:04.184Z,90.66
2022-10-01T19:33:02.702Z,90.96
2022-10-01T19:34:02.732Z,91.27
2022-10-01T19:35:02.706Z,91.61
2022-10-01T19:36:02.723Z,91.71
2022-10-01T19:37:02.714Z,91.91
2022-10-01T19:38:02.663Z,92.11
2022-10-01T19:39:02.676Z,92.31
2022-10-01T19:40:03.491Z,92.55
2022-10-01T19:41:04.971Z,92.76
2022-10-01T19:42:02.645Z,92.66
2022-10-01T19:43:03.546Z,92.85
2022-10-01T19:44:02.626Z,92.96
2022-10-01T19:45:02.554Z,92.96
2022-10-01T19:46:02.583Z,93.16
2022-10-01T19:47:02.691Z,93.70
2022-10-01T19:48:05.004Z,93.80
2022-10-01T19:49:02.575Z,93.90
2022-10-01T19:50:02.538Z,94.10
2022-10-01T19:51:04.402Z,94.00
2022-10-01T19:52:02.496Z,94.00
2022-10-01T19:53:02.513Z,94.00
2022-10-01T19:54:03.503Z,94.00
2022-10-01T19:55:05.038Z,94.20
2022-10-01T19:56:02.494Z,94.31
2022-10-01T19:57:03.088Z,94.31
2022-10-01T19:58:02.466Z,94.40
2022-10-01T19:59:04.986Z,94.40
2022-10-01T20:00:03.596Z,94.51
2022-10-01T20:01:02.423Z,94.40
2022-10-01T20:02:03.685Z,94.40
2022-10-01T20:03:02.365Z,94.40
2022-10-01T20:04:02.348Z,94.51
2022-10-01T20:05:03.854Z,94.20
2022-10-01T20:06:01.343Z,94.31
2022-10-01T20:07:03.078Z,94.00
2022-10-01T20:08:02.317Z,94.20
2022-10-01T20:09:02.339Z,94.10
2022-10-01T20:10:05.630Z,94.35
2022-10-01T20:11:02.321Z,94.35
2022-10-01T20:12:03.061Z,94.55
2022-10-01T20:13:02.330Z,94.45
2022-10-01T20:14:02.958Z,94.55
2022-10-01T20:15:02.301Z,94.55
2022-10-01T20:16:02.314Z,94.45
2022-10-01T20:17:02.221Z,94.65
2022-10-01T20:18:02.202Z,95.10
2022-10-01T20:19:02.260Z,95.50
2022-10-01T20:20:07.586Z,95.84
2022-10-01T20:21:02.141Z,96.15
2022-10-01T20:22:02.158Z,96.35
2022-10-01T20:23:03.862Z,96.65
2022-10-01T20:24:02.127Z,96.65
2022-10-01T20:25:03.045Z,96.75
2022-10-01T20:26:02.157Z,97.09
2022-10-01T20:27:02.113Z,97.40
2022-10-01T20:28:02.120Z,97.60
2022-10-01T20:29:02.100Z,97.80
2022-10-01T20:30:02.057Z,97.80
2022-10-01T20:31:03.045Z,97.90
2022-10-01T20:32:02.050Z,98.00
2022-10-01T20:33:02.027Z,98.10
2022-10-01T20:34:02.064Z,98.20
2022-10-01T20:35:06.504Z,98.20
2022-10-01T20:36:02.015Z,98.30
2022-10-01T20:37:04.262Z,98.30
2022-10-01T20:38:02.713Z,98.20
2022-10-01T20:39:02.014Z,98.30
2022-10-01T20:40:01.956Z,98.40
2022-10-01T20:41:01.937Z,98.55
2022-10-01T20:42:01.933Z,98.55
2022-10-01T20:43:01.962Z,98.65
2022-10-01T20:44:01.926Z,98.75
2022-10-01T20:45:01.840Z,98.85
2022-10-01T20:46:01.913Z,98.95
2022-10-01T20:47:01.875Z,99.15
2022-10-01T20:48:01.871Z,99.15
2022-10-01T20:49:02.773Z,99.35
2022-10-01T20:50:08.829Z,99.55
2022-10-01T20:51:04.654Z,99.66
2022-10-01T20:52:06.316Z,99.66
2022-10-01T20:53:03.918Z,99.86
2022-10-01T20:54:02.614Z,99.96
2022-10-01T20:55:02.074Z,99.96
2022-10-01T20:56:01.742Z,99.99
2022-10-01T20:57:07.119Z,99.99
2022-10-01T20:58:01.828Z,99.99
2022-10-01T20:59:01.701Z,99.99
2022-10-01T21:00:02.723Z,99.99
2022-10-01T21:01:03.639Z,99.99
2022-10-01T21:02:02.859Z,99.99
2022-10-01T21:03:02.554Z,99.99
2022-10-01T21:04:25.941Z,99.99
2022-10-01T21:05:01.670Z,99.99
2022-10-01T21:06:01.721Z,99.99
2022-10-01T21:07:03.634Z,99.99
2022-10-01T21:08:03.335Z,99.99
2022-10-01T21:09:01.633Z,99.99
2022-10-01T21:10:03.173Z,99.99
2022-10-01T21:11:02.322Z,99.99
2022-10-01T21:12:05.250Z,99.99
2022-10-01T21:13:01.612Z,99.99
2022-10-01T21:14:02.102Z,99.99
2022-10-01T21:15:01.546Z,99.99
2022-10-01T21:16:01.607Z,99.99
2022-10-01T21:17:01.564Z,99.99
2022-10-01T21:18:01.527Z,99.99
2022-10-01T21:19:03.079Z,99.99
2022-10-01T21:20:01.559Z,99.99
